createdAt,value
2022-08-02T00:00:47.502Z,1.63
2022-08-02T00:03:16.361Z,2.35
2022-08-02T00:05:53.693Z,2.05
2022-08-02T00:08:24.329Z,1.92
2022-08-02T00:10:53.166Z,1.80
2022-08-02T00:13:21.864Z,1.92
2022-08-02T00:15:50.804Z,2.03
2022-08-02T00:18:19.336Z,1.77
2022-08-02T00:20:47.999Z,1.85
2022-08-02T00:23:16.756Z,1.67
2022-08-02T00:25:55.448Z,2.03
2022-08-02T00:28:26.972Z,1.95
2022-08-02T00:30:57.390Z,1.95
2022-08-02T00:34:05.752Z,2.00
2022-08-02T00:36:14.896Z,1.77
2022-08-02T00:38:43.781Z,2.00
2022-08-02T00:41:19.025Z,2.22
2022-08-02T00:43:48.511Z,2.08
2022-08-02T00:46:18.350Z,1.75
2022-08-02T00:48:47.171Z,1.75
2022-08-02T00:51:18.187Z,1.60
2022-08-02T00:53:46.815Z,1.88
2022-08-02T00:56:16.784Z,2.45
2022-08-02T00:58:45.494Z,1.60
2022-08-02T01:01:14.203Z,2.13
2022-08-02T01:03:43.151Z,1.98
2022-08-02T01:06:12.435Z,1.60
2022-08-02T01:08:41.149Z,2.03
2022-08-02T01:11:10.236Z,1.60
2022-08-02T01:13:40.820Z,1.73
2022-08-02T01:16:16.643Z,1.77
2022-08-02T01:18:49.912Z,1.50
2022-08-02T01:21:34.224Z,1.83
2022-08-02T01:24:27.149Z,1.50
2022-08-02T01:27:02.501Z,1.63
2022-08-02T01:29:36.056Z,1.60
2022-08-02T01:32:10.103Z,1.27
2022-08-02T01:34:44.102Z,1.20
2022-08-02T01:37:19.418Z,1.73
2022-08-02T01:39:52.917Z,1.40
2022-08-02T01:42:25.207Z,1.70
2022-08-02T01:44:56.234Z,1.92
2022-08-02T01:47:29.942Z,1.45
2022-08-02T01:50:00.644Z,1.83
2022-08-02T01:52:32.691Z,1.23
2022-08-02T01:55:18.717Z,1.60
2022-08-02T01:57:51.715Z,1.77
2022-08-02T02:00:23.788Z,1.38
2022-08-02T02:02:55.493Z,1.67
2022-08-02T02:05:29.078Z,1.63
2022-08-02T02:08:01.756Z,1.20
2022-08-02T02:10:32.819Z,1.50
2022-08-02T02:13:05.433Z,1.77
2022-08-02T02:15:36.803Z,1.60
2022-08-02T02:18:13.910Z,1.50
2022-08-02T02:20:44.115Z,2.10
2022-08-02T02:23:13.958Z,1.35
2022-08-02T02:25:46.435Z,1.17
2022-08-02T02:28:22.293Z,1.67
2022-08-02T02:30:56.520Z,1.45
2022-08-02T02:33:29.453Z,1.42
2022-08-02T02:36:00.576Z,1.27
2022-08-02T02:38:33.662Z,1.77
2022-08-02T02:41:04.298Z,1.48
2022-08-02T02:43:35.131Z,1.23
2022-08-02T02:46:07.442Z,1.35
2022-08-02T02:48:37.532Z,1.20
2022-08-02T02:51:08.321Z,1.42
2022-08-02T02:54:30.144Z,1.10
2022-08-02T02:56:33.992Z,1.48
2022-08-02T02:59:03.719Z,1.50
2022-08-02T03:01:55.180Z,1.88
2022-08-02T03:04:23.657Z,1.73
2022-08-02T03:06:52.549Z,1.30
2022-08-02T03:09:21.290Z,1.23
2022-08-02T03:11:50.215Z,1.17
2022-08-02T03:14:19.570Z,1.40
2022-08-02T03:16:51.667Z,1.40
2022-08-02T03:19:21.927Z,1.40
2022-08-02T03:21:56.130Z,1.10
2022-08-02T03:24:27.829Z,1.23
2022-08-02T03:26:57.422Z,1.13
2022-08-02T03:29:26.081Z,1.20
2022-08-02T03:31:58.232Z,1.42
2022-08-02T03:34:26.986Z,1.63
2022-08-02T03:36:58.236Z,1.40
2022-08-02T03:39:28.366Z,1.63
2022-08-02T03:41:58.464Z,1.50
2022-08-02T03:44:27.780Z,1.40
2022-08-02T03:46:59.156Z,1.65
2022-08-02T03:49:29.296Z,1.65
2022-08-02T03:51:58.145Z,1.40
2022-08-02T03:54:32.897Z,1.38
2022-08-02T03:57:14.879Z,1.67
2022-08-02T03:59:44.395Z,1.48
2022-08-02T04:02:15.088Z,1.55
2022-08-02T04:04:44.118Z,1.88
2022-08-02T04:07:12.735Z,1.67
2022-08-02T04:09:41.287Z,1.60
2022-08-02T04:12:12.505Z,1.40
2022-08-02T04:14:41.618Z,1.42
2022-08-02T04:17:12.420Z,1.60
2022-08-02T04:19:48.213Z,1.42
2022-08-02T04:22:20.901Z,1.48
2022-08-02T04:24:54.880Z,1.42
2022-08-02T04:27:51.119Z,1.40
2022-08-02T04:30:14.949Z,1.45
2022-08-02T04:32:45.429Z,1.33
2022-08-02T04:35:19.552Z,1.13
2022-08-02T04:38:09.449Z,1.27
2022-08-02T04:40:38.840Z,1.52
2022-08-02T04:43:07.677Z,1.40
2022-08-02T04:45:37.343Z,1.40
2022-08-02T04:48:07.539Z,1.85
2022-08-02T04:50:37.612Z,1.30
2022-08-02T04:53:06.131Z,1.67
2022-08-02T04:55:34.963Z,1.55
2022-08-02T04:58:06.664Z,1.60
2022-08-02T05:00:42.777Z,1.27
2022-08-02T05:03:11.504Z,1.65
2022-08-02T05:05:41.444Z,1.27
2022-08-02T05:08:10.130Z,1.65
2022-08-02T05:10:38.662Z,1.65
2022-08-02T05:13:07.393Z,1.20
2022-08-02T05:15:36.393Z,1.73
2022-08-02T05:18:05.194Z,1.65
2022-08-02T05:20:33.857Z,1.08
2022-08-02T05:23:04.810Z,1.05
2022-08-02T05:25:33.686Z,2.03
2022-08-02T05:28:02.468Z,1.58
2022-08-02T05:30:31.210Z,1.33
2022-08-02T05:32:59.687Z,1.50
2022-08-02T05:35:28.333Z,1.70
2022-08-02T05:37:57.046Z,1.20
2022-08-02T05:40:27.221Z,0.90
2022-08-02T05:42:56.865Z,1.35
2022-08-02T05:45:25.741Z,1.30
2022-08-02T05:47:54.530Z,1.42
2022-08-02T05:50:24.265Z,1.42
2022-08-02T05:52:58.502Z,1.63
2022-08-02T05:55:30.048Z,0.95
2022-08-02T05:58:07.418Z,1.10
2022-08-02T06:00:36.667Z,1.27
2022-08-02T06:03:16.996Z,1.42
2022-08-02T06:05:52.600Z,1.40
2022-08-02T06:08:22.821Z,1.30
2022-08-02T06:10:57.857Z,1.17
2022-08-02T06:13:27.489Z,1.45
2022-08-02T06:15:59.499Z,1.58
2022-08-02T06:18:29.387Z,1.63
2022-08-02T06:21:00.201Z,1.10
2022-08-02T06:23:59.003Z,1.42
2022-08-02T06:26:30.116Z,1.13
2022-08-02T06:28:59.953Z,1.75
2022-08-02T06:31:28.546Z,1.20
2022-08-02T06:33:57.224Z,1.90
2022-08-02T06:36:33.340Z,1.13
2022-08-02T06:39:05.664Z,1.77
2022-08-02T06:41:42.559Z,1.20
2022-08-02T06:44:45.611Z,1.90
2022-08-02T06:47:10.853Z,1.73
2022-08-02T06:49:51.773Z,1.10
2022-08-02T06:52:29.259Z,1.30
2022-08-02T06:54:59.099Z,1.33
2022-08-02T06:57:29.739Z,1.02
2022-08-02T06:59:58.755Z,1.73
2022-08-02T07:02:27.411Z,1.02
2022-08-02T07:04:56.736Z,1.80
2022-08-02T07:07:25.628Z,1.35
2022-08-02T07:09:57.281Z,0.93
2022-08-02T07:12:33.468Z,1.35
2022-08-02T07:15:03.390Z,1.00
2022-08-02T07:17:32.318Z,0.93
2022-08-02T07:20:01.839Z,1.38
2022-08-02T07:22:31.191Z,1.77
2022-08-02T07:25:01.231Z,1.35
2022-08-02T07:27:31.648Z,1.45
2022-08-02T07:30:00.383Z,1.30
2022-08-02T07:32:32.047Z,1.40
2022-08-02T07:35:02.630Z,1.73
2022-08-02T07:37:53.052Z,1.27
2022-08-02T07:40:25.144Z,1.15
2022-08-02T07:43:02.757Z,1.15
2022-08-02T07:45:35.683Z,1.10
2022-08-02T07:48:06.354Z,1.42
2022-08-02T07:50:35.212Z,1.60
2022-08-02T07:53:03.842Z,1.38
2022-08-02T07:55:39.352Z,1.45
2022-08-02T07:58:13.281Z,1.15
2022-08-02T08:00:44.094Z,1.13
2022-08-02T08:03:13.629Z,1.00
2022-08-02T08:05:42.416Z,0.73
2022-08-02T08:08:17.171Z,1.23
2022-08-02T08:10:46.377Z,0.93
2022-08-02T08:13:16.728Z,1.10
2022-08-02T08:15:52.444Z,0.73
2022-08-02T08:18:22.344Z,0.60
2022-08-02T08:20:51.939Z,0.80
2022-08-02T08:23:20.664Z,0.60
2022-08-02T08:25:49.667Z,0.80
2022-08-02T08:28:19.746Z,0.93
2022-08-02T08:30:48.597Z,0.77
2022-08-02T08:33:17.358Z,0.82
2022-08-02T08:35:45.962Z,1.05
2022-08-02T08:38:15.829Z,1.05
2022-08-02T08:40:44.936Z,0.80
2022-08-02T08:43:14.876Z,1.02
2022-08-02T08:45:45.242Z,1.42
2022-08-02T08:48:30.546Z,1.17
2022-08-02T08:51:11.953Z,0.98
2022-08-02T08:53:44.164Z,0.70
2022-08-02T08:56:16.196Z,0.90
2022-08-02T08:58:47.503Z,1.05
2022-08-02T09:01:18.617Z,1.05
2022-08-02T09:03:47.480Z,0.95
2022-08-02T09:06:16.453Z,0.70
2022-08-02T09:08:45.471Z,0.98
2022-08-02T09:11:16.009Z,1.35
2022-08-02T09:13:52.047Z,0.90
2022-08-02T09:16:33.600Z,0.90
2022-08-02T09:19:07.777Z,0.77
2022-08-02T09:21:38.407Z,1.00
2022-08-02T09:24:18.811Z,1.10
2022-08-02T09:26:48.397Z,0.88
2022-08-02T09:29:17.405Z,1.30
2022-08-02T09:31:49.699Z,1.13
2022-08-02T09:34:20.005Z,1.02
2022-08-02T09:36:54.696Z,0.95
2022-08-02T09:39:26.508Z,0.75
2022-08-02T09:42:10.793Z,0.85
2022-08-02T09:44:39.990Z,0.70
2022-08-02T09:47:18.221Z,1.00
2022-08-02T09:49:52.159Z,0.93
2022-08-02T09:52:43.365Z,0.80
2022-08-02T09:55:14.451Z,1.27
2022-08-02T09:57:44.260Z,1.02
2022-08-02T10:00:37.075Z,1.00
2022-08-02T10:03:19.308Z,0.98
2022-08-02T10:05:56.183Z,1.33
2022-08-02T10:08:32.970Z,0.70
2022-08-02T10:11:03.677Z,1.13
2022-08-02T10:13:34.513Z,0.80
2022-08-02T10:16:04.240Z,1.02
2022-08-02T10:18:41.813Z,1.17
2022-08-02T10:21:15.761Z,0.98
2022-08-02T10:23:46.391Z,0.85
2022-08-02T10:26:18.217Z,0.70
2022-08-02T10:28:49.572Z,0.90
2022-08-02T10:31:26.145Z,0.63
2022-08-02T10:33:59.911Z,1.00
2022-08-02T10:36:32.624Z,0.70
2022-08-02T10:39:03.496Z,0.98
2022-08-02T10:41:51.087Z,1.02
2022-08-02T10:44:25.350Z,0.70
2022-08-02T10:46:55.258Z,0.98
2022-08-02T10:49:40.922Z,0.60
2022-08-02T10:52:11.223Z,0.68
2022-08-02T10:54:41.141Z,0.65
2022-08-02T10:57:18.289Z,0.70
2022-08-02T10:59:47.431Z,0.63
2022-08-02T11:02:35.166Z,0.82
2022-08-02T11:05:17.072Z,0.80
2022-08-02T11:07:49.344Z,1.00
2022-08-02T11:10:39.044Z,0.93
2022-08-02T11:13:10.621Z,0.95
2022-08-02T11:16:06.470Z,0.77
2022-08-02T11:19:03.956Z,1.02
2022-08-02T11:21:37.671Z,0.88
2022-08-02T11:24:29.228Z,1.13
2022-08-02T11:26:59.024Z,1.10
2022-08-02T11:29:39.586Z,1.13
2022-08-02T11:32:10.254Z,1.13
2022-08-02T11:34:41.159Z,0.70
2022-08-02T11:37:11.740Z,1.10
2022-08-02T11:39:40.584Z,0.80
2022-08-02T11:42:09.632Z,1.05
2022-08-02T11:44:43.359Z,0.70
2022-08-02T11:47:12.761Z,0.80
2022-08-02T11:49:42.927Z,0.70
2022-08-02T11:52:13.171Z,0.85
2022-08-02T11:54:44.459Z,0.80
2022-08-02T11:57:20.050Z,0.90
2022-08-02T11:59:51.018Z,1.50
2022-08-02T12:02:20.372Z,1.00
2022-08-02T12:04:57.352Z,1.10
2022-08-02T12:07:34.255Z,1.20
2022-08-02T12:10:06.824Z,0.68
2022-08-02T12:12:47.790Z,0.82
2022-08-02T12:15:17.760Z,1.05
2022-08-02T12:18:06.090Z,0.90
2022-08-02T12:20:38.734Z,1.10
2022-08-02T12:23:08.885Z,0.80
2022-08-02T12:25:37.672Z,0.90
2022-08-02T12:28:22.365Z,0.93
2022-08-02T12:30:55.860Z,0.80
2022-08-02T12:33:25.413Z,0.82
2022-08-02T12:35:54.583Z,0.73
2022-08-02T12:38:24.491Z,0.47
2022-08-02T12:40:53.062Z,0.80
2022-08-02T12:43:24.686Z,0.77
2022-08-02T12:45:55.083Z,0.70
2022-08-02T12:48:38.352Z,0.95
2022-08-02T12:51:56.299Z,0.85
2022-08-02T12:54:30.858Z,0.82
2022-08-02T12:57:11.744Z,0.88
2022-08-02T12:59:44.600Z,0.90
2022-08-02T13:02:17.006Z,0.75
2022-08-02T13:04:49.067Z,1.80
2022-08-02T13:07:19.733Z,2.17
2022-08-02T13:09:50.324Z,1.02
2022-08-02T13:12:19.000Z,1.17
2022-08-02T13:14:47.676Z,1.10
2022-08-02T13:17:16.459Z,0.73
2022-08-02T13:19:45.358Z,1.00
2022-08-02T13:22:19.769Z,1.02
2022-08-02T13:24:56.014Z,1.85
2022-08-02T13:27:26.838Z,0.90
2022-08-02T13:29:57.001Z,0.60
2022-08-02T13:32:28.005Z,1.10
2022-08-02T13:34:57.166Z,0.80
2022-08-02T13:37:26.160Z,0.75
2022-08-02T13:40:19.123Z,0.90
2022-08-02T13:42:45.368Z,0.95
2022-08-02T13:45:14.431Z,0.65
2022-08-02T13:48:03.590Z,0.82
2022-08-02T13:50:33.416Z,0.80
2022-08-02T13:53:01.951Z,0.85
2022-08-02T13:55:32.108Z,0.55
2022-08-02T13:58:01.085Z,0.60
2022-08-02T14:00:34.927Z,1.00
2022-08-02T14:03:07.052Z,1.15
2022-08-02T14:05:48.338Z,0.93
2022-08-02T14:08:19.348Z,0.90
2022-08-02T14:10:50.076Z,0.93
2022-08-02T14:13:20.041Z,0.82
2022-08-02T14:15:49.785Z,0.80
2022-08-02T14:18:18.477Z,1.30
2022-08-02T14:20:47.290Z,0.80
2022-08-02T14:23:16.046Z,0.70
2022-08-02T14:25:44.600Z,1.00
2022-08-02T14:28:14.741Z,0.52
2022-08-02T14:30:43.916Z,0.90
2022-08-02T14:33:12.513Z,0.80
2022-08-02T14:35:41.295Z,0.82
2022-08-02T14:38:10.005Z,1.00
2022-08-02T14:40:38.650Z,1.05
2022-08-02T14:43:08.292Z,0.80
2022-08-02T14:45:40.934Z,0.80
2022-08-02T14:48:13.459Z,1.00
2022-08-02T14:50:42.181Z,0.90
2022-08-02T14:53:12.390Z,0.70
2022-08-02T14:55:43.365Z,0.63
2022-08-02T14:58:12.836Z,1.10
2022-08-02T15:00:43.882Z,0.63
2022-08-02T15:03:13.101Z,0.80
2022-08-02T15:05:41.945Z,1.08
2022-08-02T15:08:10.636Z,0.80
2022-08-02T15:10:40.299Z,0.73
2022-08-02T15:13:09.366Z,0.60
2022-08-02T15:15:43.043Z,0.90
2022-08-02T15:18:14.360Z,0.80
2022-08-02T15:20:54.532Z,0.80
2022-08-02T15:23:37.426Z,0.70
2022-08-02T15:26:06.629Z,0.73
2022-08-02T15:28:35.877Z,0.80
2022-08-02T15:31:04.534Z,0.90
2022-08-02T15:33:34.464Z,0.75
2022-08-02T15:36:03.154Z,0.70
2022-08-02T15:38:31.724Z,1.05
2022-08-02T15:41:03.251Z,0.98
2022-08-02T15:43:32.458Z,0.73
2022-08-02T15:46:01.340Z,0.90
2022-08-02T15:48:30.114Z,0.93
2022-08-02T15:51:00.308Z,0.80
2022-08-02T15:53:28.863Z,0.80
2022-08-02T15:56:05.497Z,0.60
2022-08-02T15:58:44.311Z,0.70
2022-08-02T16:01:14.163Z,0.70
2022-08-02T16:03:43.187Z,0.55
2022-08-02T16:06:13.493Z,1.13
2022-08-02T16:08:53.317Z,0.80
2022-08-02T16:11:23.856Z,0.88
2022-08-02T16:13:54.421Z,0.93
2022-08-02T16:16:24.458Z,1.00
2022-08-02T16:18:53.269Z,0.80
2022-08-02T16:21:24.865Z,0.70
2022-08-02T16:24:01.478Z,0.82
2022-08-02T16:26:32.538Z,0.93
2022-08-02T16:29:02.432Z,0.90
2022-08-02T16:31:31.327Z,0.82
2022-08-02T16:33:59.979Z,0.80
2022-08-02T16:36:30.532Z,0.70
2022-08-02T16:38:59.262Z,0.88
2022-08-02T16:41:50.966Z,0.70
2022-08-02T16:44:17.320Z,0.65
2022-08-02T16:46:46.222Z,0.60
2022-08-02T16:50:05.873Z,0.80
2022-08-02T16:52:09.950Z,0.65
2022-08-02T16:54:40.195Z,0.90
2022-08-02T16:57:09.158Z,0.73
2022-08-02T16:59:42.127Z,0.60
2022-08-02T17:02:18.543Z,0.80
2022-08-02T17:04:48.458Z,0.63
2022-08-02T17:08:06.106Z,0.75
2022-08-02T17:10:09.113Z,0.70
2022-08-02T17:12:39.507Z,1.00
2022-08-02T17:16:00.908Z,1.13
2022-08-02T17:17:58.814Z,0.85
2022-08-02T17:20:27.365Z,0.88
2022-08-02T17:23:00.835Z,0.82
2022-08-02T17:25:32.018Z,0.85
2022-08-02T17:28:01.382Z,0.63
2022-08-02T17:30:30.142Z,0.88
2022-08-02T17:35:52.175Z,0.50
2022-08-02T17:38:26.791Z,0.80
2022-08-02T17:40:56.413Z,0.95
2022-08-02T17:43:25.952Z,0.73
2022-08-02T17:46:00.815Z,0.73
2022-08-02T17:48:55.203Z,0.80
2022-08-02T17:52:15.943Z,1.00
2022-08-02T17:54:18.714Z,0.70
2022-08-02T17:56:48.906Z,0.63
2022-08-02T17:59:20.355Z,0.60
2022-08-02T18:01:52.923Z,0.98
2022-08-02T18:04:27.493Z,0.60
2022-08-02T18:06:59.097Z,0.70
2022-08-02T18:09:34.613Z,0.82
2022-08-02T18:12:03.289Z,1.13
2022-08-02T18:14:31.876Z,0.60
2022-08-02T18:17:00.892Z,0.75
2022-08-02T18:19:33.096Z,0.80
2022-08-02T18:22:12.019Z,1.00
2022-08-02T18:24:44.235Z,0.90
2022-08-02T18:27:14.253Z,1.05
2022-08-02T18:29:42.932Z,0.70
2022-08-02T18:32:16.119Z,0.90
2022-08-02T18:35:04.949Z,0.93
2022-08-02T18:37:43.763Z,1.30
2022-08-02T18:40:17.874Z,0.70
2022-08-02T18:46:01.577Z,1.15
2022-08-02T18:48:25.983Z,0.80
2022-08-02T18:50:58.658Z,1.02
2022-08-02T18:53:41.840Z,0.90
2022-08-02T18:59:07.633Z,0.80
2022-08-02T19:04:27.475Z,1.20
2022-08-02T19:07:07.391Z,1.50
2022-08-02T19:09:39.880Z,1.23
2022-08-02T19:12:12.434Z,1.02
2022-08-02T19:14:41.400Z,1.40
2022-08-02T19:17:16.045Z,1.33
2022-08-02T19:19:59.673Z,1.02
2022-08-02T19:22:29.737Z,1.42
2022-08-02T19:25:01.063Z,1.42
2022-08-02T19:27:33.227Z,1.02
2022-08-02T19:30:03.626Z,1.17
2022-08-02T19:32:40.668Z,1.45
2022-08-02T19:35:19.271Z,1.27
2022-08-02T19:38:06.715Z,1.08
2022-08-02T19:40:35.638Z,1.40
2022-08-02T19:44:27.474Z,1.10
2022-08-02T19:45:57.168Z,1.17
2022-08-02T19:48:28.240Z,1.55
2022-08-02T19:51:00.621Z,1.42
2022-08-02T19:53:47.520Z,1.10
2022-08-02T19:56:25.011Z,1.20
2022-08-02T19:58:57.935Z,1.20
2022-08-02T20:01:36.658Z,1.15
2022-08-02T20:04:07.270Z,0.88
2022-08-02T20:06:41.188Z,1.10
2022-08-02T20:09:16.467Z,1.42
2022-08-02T20:11:46.160Z,0.95
2022-08-02T20:14:26.806Z,1.25
2022-08-02T20:16:57.102Z,1.60
2022-08-02T20:19:29.663Z,1.20
2022-08-02T20:22:00.555Z,1.10
2022-08-02T20:24:29.765Z,1.33
2022-08-02T20:26:59.709Z,1.15
2022-08-02T20:29:43.933Z,1.10
2022-08-02T20:32:21.782Z,1.00
2022-08-02T20:34:52.474Z,0.82
2022-08-02T20:37:59.343Z,1.17
2022-08-02T20:40:17.201Z,1.23
2022-08-02T20:42:48.452Z,1.20
2022-08-02T20:45:18.928Z,1.10
2022-08-02T20:47:49.827Z,1.40
2022-08-02T20:50:37.862Z,0.70
2022-08-02T20:53:07.505Z,1.17
2022-08-02T20:55:36.797Z,0.80
2022-08-02T20:58:06.272Z,1.08
2022-08-02T21:00:42.662Z,0.93
2022-08-02T21:03:14.269Z,1.00
2022-08-02T21:05:55.859Z,1.30
2022-08-02T21:08:24.672Z,1.27
2022-08-02T21:10:55.562Z,1.40
2022-08-02T21:13:26.063Z,1.25
2022-08-02T21:16:06.009Z,1.02
2022-08-02T21:18:41.252Z,1.27
2022-08-02T21:21:10.882Z,1.05
2022-08-02T21:23:44.842Z,1.08
2022-08-02T21:26:19.794Z,0.82
2022-08-02T21:28:54.432Z,1.55
2022-08-02T21:31:29.779Z,0.98
2022-08-02T21:34:01.035Z,1.40
2022-08-02T21:36:32.707Z,0.93
2022-08-02T21:39:03.629Z,1.25
2022-08-02T21:41:39.237Z,0.88
2022-08-02T21:44:15.753Z,1.05
2022-08-02T21:50:09.010Z,1.25
2022-08-02T21:52:26.128Z,1.10
2022-08-02T21:54:56.172Z,0.90
2022-08-02T21:57:25.932Z,0.70
2022-08-02T22:00:05.681Z,1.20
2022-08-02T22:02:37.204Z,1.33
2022-08-02T22:05:06.650Z,1.15
2022-08-02T22:07:45.585Z,1.00
2022-08-02T22:10:14.776Z,1.20
2022-08-02T22:12:44.915Z,1.33
2022-08-02T22:15:14.397Z,1.10
2022-08-02T22:17:52.076Z,1.45
2022-08-02T22:20:22.674Z,1.05
2022-08-02T22:22:52.594Z,1.15
2022-08-02T22:25:33.271Z,1.50
2022-08-02T22:28:35.977Z,0.98
2022-08-02T22:31:00.057Z,1.25
2022-08-02T22:34:00.362Z,1.45
2022-08-02T22:36:30.941Z,1.42
2022-08-02T22:39:00.194Z,1.33
2022-08-02T22:42:01.801Z,1.45
2022-08-02T22:44:18.561Z,1.27
2022-08-02T22:46:50.211Z,1.50
2022-08-02T22:52:10.583Z,1.42
2022-08-02T22:54:39.800Z,1.25
2022-08-02T22:57:11.558Z,1.60
2022-08-02T22:58:45.115Z,1.08
2022-08-02T22:58:46.604Z,1.05
2022-08-02T22:58:49.640Z,0.73
2022-08-02T22:58:57.503Z,0.95
2022-08-02T22:59:09.878Z,1.45
2022-08-02T22:59:11.853Z,1.17
2022-08-02T22:59:41.530Z,1.52
2022-08-02T23:02:10.527Z,1.50
2022-08-02T23:04:40.647Z,1.88
2022-08-02T23:07:09.531Z,2.13
2022-08-02T23:09:38.540Z,1.98
2022-08-02T23:12:07.490Z,1.70
2022-08-02T23:14:37.038Z,1.90
2022-08-02T23:17:22.930Z,1.90
2022-08-02T23:19:53.744Z,1.95
2022-08-02T23:22:29.930Z,2.85
2022-08-02T23:25:02.142Z,2.15
2022-08-02T23:27:31.618Z,1.65
2022-08-02T23:30:00.944Z,1.90
2022-08-02T23:32:30.437Z,2.30
2022-08-02T23:35:00.726Z,2.30
2022-08-02T23:37:29.301Z,2.45
2022-08-02T23:40:39.607Z,2.03
2022-08-02T23:43:13.413Z,2.25
2022-08-02T23:45:45.710Z,2.05
2022-08-02T23:48:14.563Z,2.00
2022-08-02T23:50:44.913Z,2.20
2022-08-02T23:53:13.701Z,1.77
2022-08-02T23:55:42.229Z,2.70
2022-08-02T23:58:10.821Z,1.80
